Time;durP1;ratioP1;P1;durP2;ratioP2;P2;SDS_P1;SDS_P2;PMS_P1;PMS_P2;Temp;Humidity;BMP_temperature;BMP_pressure;BME280_temperature;BME280_humidity;BME280_pressure;Samples;Min_cycle;Max_cycle;Signal;HPM_P1;HPM_P2
2022/09/19 00:01:10;;;;;;;0.90;0.50;;;10.20;99.90;;;;;;5049557;28;20418;-76
2022/09/19 00:03:36;;;;;;;1.63;0.50;;;9.90;99.90;;;;;;5050508;28;20525;-76
2022/09/19 00:06:02;;;;;;;1.30;0.90;;;9.60;99.90;;;;;;5051506;28;20459;-76
2022/09/19 00:08:28;;;;;;;0.70;0.50;;;9.50;99.90;;;;;;5051222;28;20955;-74
2022/09/19 00:10:54;;;;;;;4.60;0.50;;;9.50;99.90;;;;;;5049649;28;20465;-75
2022/09/19 00:13:19;;;;;;;1.47;0.60;;;9.50;99.90;;;;;;5050715;28;20221;-75
2022/09/19 00:15:47;;;;;;;2.30;0.67;;;9.50;99.90;;;;;;5050942;28;20198;-77
2022/09/19 00:18:13;;;;;;;1.73;0.60;;;9.60;99.90;;;;;;5051101;28;20669;-75
2022/09/19 00:20:40;;;;;;;0.90;0.60;;;9.40;99.90;;;;;;5050881;28;20519;-76
2022/09/19 00:26:01;;;;;;;1.53;0.70;;;9.30;99.90;;;;;;5051049;28;20433;-76
2022/09/19 00:28:28;;;;;;;0.70;0.50;;;9.30;99.90;;;;;;5033043;28;20432;-76
2022/09/19 00:30:57;;;;;;;0.80;0.50;;;9.30;99.90;;;;;;5050932;28;20487;-77
2022/09/19 00:33:28;;;;;;;0.70;0.50;;;9.30;99.90;;;;;;5050805;28;20853;-76
2022/09/19 00:35:54;;;;;;;0.80;0.40;;;9.30;99.90;;;;;;5050639;28;20505;-76
2022/09/19 00:38:21;;;;;;;1.13;0.50;;;9.30;99.90;;;;;;5050481;28;20419;-76
2022/09/19 00:40:48;;;;;;;0.80;0.50;;;9.30;99.90;;;;;;5048013;28;21234;-76
2022/09/19 00:43:15;;;;;;;0.70;0.50;;;9.30;99.90;;;;;;5049246;28;20937;-76
2022/09/19 00:45:40;;;;;;;2.23;0.50;;;9.20;99.90;;;;;;5050637;28;20507;-76
2022/09/19 00:48:07;;;;;;;1.90;0.60;;;9.30;99.90;;;;;;5050596;28;20516;-76
2022/09/19 00:50:33;;;;;;;2.17;0.50;;;9.30;99.90;;;;;;5050637;28;20182;-76
2022/09/19 00:53:10;;;;;;;2.10;0.47;;;9.30;99.90;;;;;;5049027;28;20432;-76
2022/09/19 00:55:37;;;;;;;2.80;0.40;;;9.30;99.90;;;;;;5048866;28;20200;-75
2022/09/19 00:58:05;;;;;;;0.70;0.50;;;9.20;99.90;;;;;;5049066;28;20803;-76
2022/09/19 01:00:34;;;;;;;1.80;0.40;;;9.20;99.90;;;;;;5050191;28;20464;-76
2022/09/19 01:03:00;;;;;;;0.90;0.50;;;9.20;99.90;;;;;;5050317;28;20513;-76
2022/09/19 01:05:55;;;;;;;0.80;0.40;;;9.20;99.90;;;;;;5050188;28;20434;-75
2022/09/19 01:08:33;;;;;;;0.70;0.50;;;9.20;99.90;;;;;;5050077;28;20499;-76
2022/09/19 01:11:20;;;;;;;1.07;0.50;;;9.20;99.90;;;;;;5050290;28;20396;-76
2022/09/19 01:13:45;;;;;;;0.90;0.40;;;9.20;99.90;;;;;;5049769;28;20461;-76
2022/09/19 01:16:20;;;;;;;0.70;0.40;;;9.10;99.90;;;;;;5049603;28;20784;-76
2022/09/19 01:19:05;;;;;;;0.70;0.40;;;9.00;99.90;;;;;;5051630;28;20172;-76
2022/09/19 01:21:53;;;;;;;0.77;0.40;;;8.90;99.90;;;;;;5050704;28;20957;-76
2022/09/19 01:24:37;;;;;;;0.60;0.30;;;8.90;99.90;;;;;;5051044;28;20411;-76
2022/09/19 01:27:24;;;;;;;1.00;0.40;;;8.90;99.90;;;;;;5049311;28;20434;-76
2022/09/19 01:30:06;;;;;;;1.83;0.40;;;8.80;99.90;;;;;;5050308;28;20912;-77
2022/09/19 01:32:37;;;;;;;1.83;0.30;;;8.80;99.90;;;;;;5051025;28;20444;-75
2022/09/19 01:35:08;;;;;;;3.13;0.40;;;8.80;99.90;;;;;;5050331;28;21014;-76
2022/09/19 01:37:40;;;;;;;0.70;0.40;;;8.70;99.90;;;;;;5049879;28;20520;-76
2022/09/19 01:40:10;;;;;;;0.70;0.40;;;8.70;99.90;;;;;;5047758;28;20414;-76
2022/09/19 01:42:46;;;;;;;1.30;0.50;;;8.60;99.90;;;;;;5049136;28;20439;-76
2022/09/19 01:45:12;;;;;;;0.70;0.30;;;8.60;99.90;;;;;;5049207;28;20923;-76
2022/09/19 01:47:52;;;;;;;1.00;0.40;;;8.60;99.90;;;;;;5047761;28;20497;-75
2022/09/19 01:50:34;;;;;;;1.43;0.40;;;8.50;99.90;;;;;;5047605;28;20184;-76
2022/09/19 01:53:12;;;;;;;1.57;0.40;;;8.50;99.90;;;;;;5047411;28;20439;-76
2022/09/19 01:56:10;;;;;;;0.70;0.40;;;8.50;99.90;;;;;;5048603;28;20865;-76
2022/09/19 01:58:48;;;;;;;0.70;0.40;;;8.40;99.90;;;;;;5048871;28;20420;-76
2022/09/19 02:01:13;;;;;;;5.03;0.50;;;8.40;99.90;;;;;;5049148;28;20445;-75
2022/09/19 02:04:14;;;;;;;1.90;0.50;;;8.40;99.90;;;;;;5048732;28;20513;-76
2022/09/19 02:06:47;;;;;;;0.80;0.50;;;8.40;99.90;;;;;;5047389;28;20187;-76
2022/09/19 02:09:38;;;;;;;0.80;0.60;;;8.40;99.90;;;;;;5048700;28;20411;-76
2022/09/19 02:12:07;;;;;;;0.70;0.60;;;8.40;99.90;;;;;;5048527;28;20448;-76
2022/09/19 02:14:37;;;;;;;0.87;0.50;;;8.40;99.90;;;;;;5048883;28;20934;-76
2022/09/19 02:17:07;;;;;;;1.97;0.60;;;8.40;99.90;;;;;;5031165;28;20466;-76
2022/09/19 02:19:42;;;;;;;0.80;0.50;;;8.30;99.90;;;;;;5048795;28;20477;-75
2022/09/19 02:22:36;;;;;;;1.00;0.50;;;8.30;99.90;;;;;;5048766;28;20480;-76
2022/09/19 02:25:05;;;;;;;1.63;0.80;;;8.30;99.90;;;;;;5048613;28;20511;-76
2022/09/19 02:28:00;;;;;;;1.87;0.53;;;8.30;99.90;;;;;;5049019;28;21235;-75
2022/09/19 02:30:26;;;;;;;0.80;0.60;;;8.30;99.90;;;;;;5048416;28;20997;-75
2022/09/19 02:32:53;;;;;;;0.83;0.50;;;8.30;99.90;;;;;;5047558;28;21280;-75
2022/09/19 02:35:32;;;;;;;0.77;0.50;;;8.30;99.90;;;;;;5048810;28;20486;-75
2022/09/19 02:38:01;;;;;;;0.80;0.57;;;8.30;99.90;;;;;;5048827;28;20508;-75
2022/09/19 02:40:35;;;;;;;2.50;0.67;;;8.30;99.90;;;;;;5048587;28;20448;-75
2022/09/19 02:43:26;;;;;;;6.33;1.20;;;8.20;99.90;;;;;;5047381;28;20462;-75
2022/09/19 02:45:55;;;;;;;3.40;0.70;;;8.30;99.90;;;;;;5047750;28;20510;-75
2022/09/19 02:48:32;;;;;;;0.80;0.50;;;8.30;99.90;;;;;;5049007;28;20410;-76
2022/09/19 02:51:08;;;;;;;1.13;0.53;;;8.30;99.90;;;;;;5048956;28;20445;-76
2022/09/19 02:53:40;;;;;;;2.07;0.60;;;8.30;99.90;;;;;;5048992;28;20460;-77
2022/09/19 02:56:06;;;;;;;2.20;0.60;;;8.20;99.90;;;;;;5048901;28;20997;-75
2022/09/19 02:58:40;;;;;;;0.80;0.60;;;8.20;99.90;;;;;;5048785;28;20415;-76
2022/09/19 03:01:12;;;;;;;2.93;0.53;;;8.30;99.90;;;;;;5048719;28;20417;-76
2022/09/19 03:06:33;;;;;;;1.17;0.60;;;8.20;99.90;;;;;;5052580;28;20413;-76
2022/09/19 03:09:01;;;;;;;2.33;0.70;;;8.20;99.90;;;;;;5052427;28;20899;-76
2022/09/19 03:11:30;;;;;;;1.00;0.60;;;8.20;99.90;;;;;;5050684;28;20422;-76
2022/09/19 03:13:58;;;;;;;4.13;0.50;;;8.20;99.90;;;;;;5050580;28;20909;-76
2022/09/19 03:16:39;;;;;;;1.80;0.73;;;8.20;99.90;;;;;;5051732;28;20597;-76
2022/09/19 03:19:07;;;;;;;1.80;0.80;;;8.20;99.90;;;;;;5051909;28;20427;-76
2022/09/19 03:21:33;;;;;;;2.50;0.70;;;8.30;99.90;;;;;;5051760;28;20437;-76
2022/09/19 03:23:59;;;;;;;2.20;0.57;;;8.30;99.90;;;;;;5051829;28;20932;-75
2022/09/19 03:26:32;;;;;;;4.87;0.80;;;8.20;99.90;;;;;;5050198;28;20411;-76
2022/09/19 03:28:58;;;;;;;5.63;0.80;;;8.30;99.90;;;;;;5051525;28;20807;-76
2022/09/19 03:31:25;;;;;;;3.83;0.60;;;8.20;99.90;;;;;;5051386;28;20418;-76
2022/09/19 03:33:52;;;;;;;2.57;0.70;;;8.20;99.90;;;;;;5051368;28;20434;-76
2022/09/19 03:36:18;;;;;;;6.33;1.00;;;8.30;99.90;;;;;;5051228;28;20995;-78
2022/09/19 03:38:44;;;;;;;5.63;0.90;;;8.20;99.90;;;;;;5050080;28;21224;-76
2022/09/19 03:41:15;;;;;;;5.27;1.00;;;8.30;99.90;;;;;;5051233;28;20483;-76
2022/09/19 03:43:44;;;;;;;2.90;0.70;;;8.30;99.90;;;;;;5051126;28;20441;-76
2022/09/19 03:46:12;;;;;;;11.80;0.90;;;8.30;99.90;;;;;;5049787;28;20428;-75
2022/09/19 03:48:39;;;;;;;2.37;0.90;;;8.20;99.90;;;;;;5051220;28;20916;-76
2022/09/19 03:51:04;;;;;;;2.00;0.80;;;8.20;99.90;;;;;;5051063;28;20416;-76
2022/09/19 03:53:30;;;;;;;1.53;0.87;;;8.20;99.90;;;;;;5051155;28;20431;-75
2022/09/19 03:55:57;;;;;;;2.23;0.60;;;8.20;99.90;;;;;;5050990;28;20545;-75
2022/09/19 03:58:23;;;;;;;6.30;1.10;;;8.20;99.90;;;;;;5051255;28;20176;-75
2022/09/19 04:00:49;;;;;;;1.77;0.90;;;8.20;99.90;;;;;;5051092;28;20766;-75
2022/09/19 04:03:17;;;;;;;1.77;0.77;;;8.20;99.90;;;;;;5051277;28;20434;-75
2022/09/19 04:05:43;;;;;;;10.80;1.30;;;8.20;99.90;;;;;;5051479;28;20408;-75
2022/09/19 04:08:08;;;;;;;2.93;0.80;;;8.20;99.90;;;;;;5051381;28;20912;-76
2022/09/19 04:10:34;;;;;;;3.10;0.80;;;8.20;99.90;;;;;;5051269;28;20416;-75
2022/09/19 04:13:00;;;;;;;1.10;0.80;;;8.10;99.90;;;;;;5051493;28;20295;-76
2022/09/19 04:15:25;;;;;;;3.80;0.80;;;8.20;99.90;;;;;;5051121;28;20247;-75
2022/09/19 04:17:51;;;;;;;5.97;0.83;;;8.10;99.90;;;;;;5051238;28;20203;-75
2022/09/19 04:20:17;;;;;;;2.90;0.77;;;8.20;99.90;;;;;;5050930;28;20179;-75
2022/09/19 04:22:42;;;;;;;9.33;0.87;;;8.20;99.90;;;;;;5033195;28;20240;-75
2022/09/19 04:25:10;;;;;;;5.40;1.20;;;8.30;99.90;;;;;;5051002;28;20185;-76
2022/09/19 04:27:37;;;;;;;4.00;0.83;;;8.30;99.90;;;;;;5051010;28;20188;-76
2022/09/19 04:30:04;;;;;;;3.87;1.07;;;8.30;99.90;;;;;;5050876;28;20942;-76
2022/09/19 04:32:30;;;;;;;5.40;1.10;;;8.30;99.90;;;;;;5050964;28;20495;-75
2022/09/19 04:34:57;;;;;;;7.37;0.97;;;8.30;99.90;;;;;;5050826;28;20425;-75
2022/09/19 04:37:23;;;;;;;2.73;0.60;;;8.30;99.90;;;;;;5049270;28;21049;-76
2022/09/19 04:39:49;;;;;;;4.97;0.93;;;8.30;99.90;;;;;;5050555;28;20501;-76
2022/09/19 04:42:17;;;;;;;1.40;0.87;;;8.30;99.90;;;;;;5049264;28;21357;-76
2022/09/19 04:44:43;;;;;;;1.17;0.87;;;8.30;99.90;;;;;;5050709;28;20233;-76
2022/09/19 04:47:10;;;;;;;4.30;0.90;;;8.30;99.90;;;;;;5050701;28;20422;-75
2022/09/19 04:49:40;;;;;;;2.50;0.83;;;8.40;99.90;;;;;;5050716;28;21183;-75
2022/09/19 04:52:12;;;;;;;1.93;0.90;;;8.30;99.90;;;;;;5050521;28;20528;-76
2022/09/19 04:54:38;;;;;;;4.17;0.90;;;8.30;99.90;;;;;;5048881;28;20538;-76
2022/09/19 04:57:07;;;;;;;3.10;0.80;;;8.30;99.90;;;;;;5050958;28;21072;-76
2022/09/19 04:59:34;;;;;;;4.63;0.90;;;8.30;99.90;;;;;;5049230;28;20420;-76
2022/09/19 05:02:02;;;;;;;6.87;0.80;;;8.30;99.90;;;;;;5048701;28;20435;-76
2022/09/19 05:04:28;;;;;;;5.33;0.90;;;8.30;99.90;;;;;;5050258;28;20414;-76
2022/09/19 05:06:55;;;;;;;2.33;0.73;;;8.30;99.90;;;;;;5048662;28;21066;-76
2022/09/19 05:09:22;;;;;;;3.63;1.37;;;8.30;99.90;;;;;;5050474;28;20426;-76
2022/09/19 05:11:48;;;;;;;3.47;0.80;;;8.30;99.90;;;;;;5050021;28;20480;-76
2022/09/19 05:14:14;;;;;;;7.00;1.40;;;8.40;99.90;;;;;;5048722;28;20865;-76
2022/09/19 05:16:41;;;;;;;6.97;1.00;;;8.40;99.90;;;;;;5049888;28;20556;-76
2022/09/19 05:19:08;;;;;;;6.70;0.90;;;8.30;99.90;;;;;;5049918;28;20267;-76
2022/09/19 05:21:34;;;;;;;3.23;0.90;;;8.30;99.90;;;;;;5049882;28;20452;-76
2022/09/19 05:24:00;;;;;;;4.43;0.80;;;8.40;99.90;;;;;;5049538;28;20434;-76
2022/09/19 05:26:26;;;;;;;8.73;1.23;;;8.30;99.90;;;;;;5049181;28;20989;-76
2022/09/19 05:28:52;;;;;;;7.20;1.00;;;8.30;99.90;;;;;;5049451;28;20426;-76
2022/09/19 05:31:19;;;;;;;9.37;1.27;;;8.40;99.90;;;;;;5047767;28;20924;-76
2022/09/19 05:33:45;;;;;;;5.70;1.03;;;8.30;99.90;;;;;;5049056;28;20806;-76
2022/09/19 05:36:11;;;;;;;1.90;1.20;;;8.30;99.90;;;;;;5047533;28;20458;-76
2022/09/19 05:38:37;;;;;;;3.23;0.77;;;8.20;99.90;;;;;;5049024;28;20468;-76
2022/09/19 05:41:04;;;;;;;6.10;1.00;;;8.30;99.90;;;;;;5048973;28;20415;-76
2022/09/19 05:43:29;;;;;;;7.00;1.33;;;8.30;99.90;;;;;;5048802;28;20492;-76
2022/09/19 05:45:56;;;;;;;2.00;0.87;;;8.30;99.90;;;;;;5048846;28;20419;-76
2022/09/19 05:48:23;;;;;;;3.73;1.10;;;8.40;99.90;;;;;;5048798;28;20200;-76
2022/09/19 05:50:50;;;;;;;4.70;0.80;;;8.30;99.90;;;;;;5047433;28;20858;-76
2022/09/19 05:56:04;;;;;;;7.33;1.00;;;8.40;99.90;;;;;;5048891;28;20529;-76
2022/09/19 05:58:30;;;;;;;7.30;1.17;;;8.40;99.90;;;;;;5048951;28;20475;-76
2022/09/19 06:00:56;;;;;;;5.70;1.70;;;8.50;99.90;;;;;;5048922;28;20901;-76
2022/09/19 06:03:22;;;;;;;4.77;1.67;;;8.50;99.90;;;;;;5048877;28;20431;-76
2022/09/19 06:05:51;;;;;;;5.40;0.90;;;8.50;99.90;;;;;;5030633;28;20470;-76
2022/09/19 06:08:24;;;;;;;6.80;1.30;;;8.60;99.90;;;;;;5047650;28;20191;-76
2022/09/19 06:10:50;;;;;;;7.50;1.47;;;8.60;99.90;;;;;;5048735;28;20428;-76
2022/09/19 06:13:17;;;;;;;10.47;1.30;;;8.60;99.90;;;;;;5049025;28;20446;-76
2022/09/19 06:15:43;;;;;;;10.53;1.80;;;8.60;99.90;;;;;;5048860;28;20432;-76
2022/09/19 06:18:09;;;;;;;2.00;0.83;;;8.60;99.90;;;;;;5048923;28;20446;-76
2022/09/19 06:20:36;;;;;;;14.07;1.63;;;8.60;99.90;;;;;;5048690;28;20176;-76
2022/09/19 06:23:04;;;;;;;7.17;1.20;;;8.60;99.90;;;;;;5030961;28;20829;-76
2022/09/19 06:25:31;;;;;;;6.40;1.37;;;8.70;99.90;;;;;;5047680;28;20469;-76
2022/09/19 06:27:59;;;;;;;7.20;1.10;;;8.70;99.90;;;;;;5048855;28;20414;-76
2022/09/19 06:30:26;;;;;;;11.40;1.40;;;8.70;99.90;;;;;;5052284;28;20783;-76
2022/09/19 06:32:52;;;;;;;4.27;1.47;;;8.80;99.90;;;;;;5060718;28;20468;-76
2022/09/19 06:35:23;;;;;;;5.70;1.23;;;8.90;99.90;;;;;;5057070;28;20438;-76
2022/09/19 06:37:49;;;;;;;3.70;0.97;;;8.90;99.90;;;;;;5052272;28;20436;-75
2022/09/19 06:40:20;;;;;;;5.10;1.43;;;9.00;99.90;;;;;;5051611;28;20425;-76
2022/09/19 06:42:46;;;;;;;5.03;1.40;;;9.10;99.90;;;;;;5053109;28;20438;-76
2022/09/19 06:45:12;;;;;;;5.80;0.90;;;9.10;99.90;;;;;;5053388;28;20407;-76
2022/09/19 06:47:37;;;;;;;4.33;1.20;;;9.20;99.90;;;;;;5053725;28;20180;-76
2022/09/19 06:50:04;;;;;;;6.07;1.27;;;9.10;99.90;;;;;;5052812;28;20575;-76
2022/09/19 06:52:30;;;;;;;6.77;1.17;;;9.10;99.90;;;;;;5051202;28;20232;-76
2022/09/19 06:54:57;;;;;;;6.20;1.07;;;9.10;99.90;;;;;;5052096;28;20443;-76
2022/09/19 06:57:23;;;;;;;9.77;1.20;;;9.10;99.90;;;;;;5052075;28;20266;-75
2022/09/19 06:59:49;;;;;;;7.17;0.90;;;9.10;99.90;;;;;;5052236;28;20424;-75
2022/09/19 07:02:15;;;;;;;6.27;1.03;;;9.10;99.90;;;;;;5050444;28;20447;-76
2022/09/19 07:04:40;;;;;;;5.20;1.23;;;9.20;99.90;;;;;;5052009;28;20181;-76
2022/09/19 07:07:06;;;;;;;3.93;1.00;;;9.30;99.90;;;;;;5050426;28;20189;-76
2022/09/19 07:09:32;;;;;;;10.30;1.13;;;9.30;99.90;;;;;;5052009;28;20855;-76
2022/09/19 07:11:57;;;;;;;6.27;1.70;;;9.40;99.90;;;;;;5051543;28;20644;-76
2022/09/19 07:14:24;;;;;;;3.77;1.50;;;9.40;99.90;;;;;;5051539;28;20659;-76
2022/09/19 07:16:50;;;;;;;6.23;1.17;;;9.40;99.90;;;;;;5051742;28;20472;-75
2022/09/19 07:19:16;;;;;;;8.17;1.60;;;9.50;99.90;;;;;;5050686;28;20411;-75
2022/09/19 07:21:42;;;;;;;4.97;1.33;;;9.50;99.90;;;;;;5051879;28;20195;-75
2022/09/19 07:24:08;;;;;;;4.20;1.27;;;9.70;99.90;;;;;;5052128;28;20908;-75
2022/09/19 07:26:34;;;;;;;8.17;2.03;;;9.60;99.90;;;;;;5052963;28;20431;-75
2022/09/19 07:28:59;;;;;;;5.17;1.30;;;9.60;99.90;;;;;;5051631;28;20254;-75
2022/09/19 07:31:29;;;;;;;6.50;1.10;;;9.70;99.90;;;;;;5052442;28;20258;-75
2022/09/19 07:33:54;;;;;;;3.73;1.40;;;9.80;99.90;;;;;;5052044;28;20294;-76
2022/09/19 07:36:23;;;;;;;3.93;1.00;;;9.80;99.90;;;;;;5051640;28;20507;-76
2022/09/19 07:38:49;;;;;;;13.70;2.87;;;9.80;99.90;;;;;;5050114;28;20181;-76
2022/09/19 07:41:16;;;;;;;16.40;1.40;;;9.70;99.90;;;;;;5051388;28;20933;-76
2022/09/19 07:43:43;;;;;;;5.43;1.70;;;9.70;99.90;;;;;;5051374;28;20737;-76
2022/09/19 07:46:08;;;;;;;11.70;1.37;;;9.80;99.90;;;;;;5049921;28;20915;-76
2022/09/19 07:48:34;;;;;;;3.50;1.30;;;9.90;99.90;;;;;;5049829;28;20514;-76
2022/09/19 07:51:02;;;;;;;3.60;1.07;;;10.00;99.90;;;;;;5050829;28;20419;-76
2022/09/19 07:53:28;;;;;;;7.23;1.43;;;10.00;99.90;;;;;;5051186;28;20856;-76
2022/09/19 07:55:57;;;;;;;7.63;1.23;;;10.00;99.90;;;;;;5049606;28;20444;-76
2022/09/19 07:58:24;;;;;;;9.90;1.53;;;10.00;99.90;;;;;;5050770;28;20432;-76
2022/09/19 08:00:50;;;;;;;3.73;1.40;;;10.00;99.90;;;;;;5051037;28;20404;-76
2022/09/19 08:03:18;;;;;;;7.60;1.30;;;10.10;99.90;;;;;;5049353;28;20489;-76
2022/09/19 08:05:46;;;;;;;11.60;2.90;;;10.00;99.90;;;;;;5049105;28;20967;-76
2022/09/19 08:08:13;;;;;;;5.67;1.53;;;10.20;99.90;;;;;;5050685;28;20440;-76
2022/09/19 08:10:40;;;;;;;5.17;1.53;;;10.10;99.90;;;;;;5049381;28;20441;-76
2022/09/19 08:13:07;;;;;;;9.73;1.80;;;10.20;99.90;;;;;;5050254;28;20973;-76
2022/09/19 08:15:34;;;;;;;8.07;1.83;;;10.20;99.90;;;;;;5050512;28;20413;-76
2022/09/19 08:18:15;;;;;;;9.47;1.77;;;10.20;99.90;;;;;;5048879;28;20830;-76
2022/09/19 08:20:42;;;;;;;6.43;1.50;;;10.20;99.90;;;;;;5050314;28;20425;-76
2022/09/19 08:23:10;;;;;;;8.73;1.90;;;10.30;99.90;;;;;;5050366;28;20947;-75
2022/09/19 08:25:38;;;;;;;5.37;1.70;;;10.40;99.90;;;;;;5050249;28;20491;-76
2022/09/19 08:28:05;;;;;;;12.27;1.73;;;10.60;99.90;;;;;;5050220;28;20496;-76
2022/09/19 08:30:33;;;;;;;7.63;1.20;;;10.60;99.90;;;;;;5050329;28;20417;-76
2022/09/19 08:33:00;;;;;;;6.23;1.30;;;10.70;99.90;;;;;;5050106;28;20637;-76
2022/09/19 08:35:27;;;;;;;8.20;1.33;;;10.90;99.90;;;;;;5050102;28;20420;-76
2022/09/19 08:37:58;;;;;;;16.50;1.90;;;10.90;99.90;;;;;;5049938;28;21042;-76
2022/09/19 08:40:25;;;;;;;6.63;1.80;;;10.80;99.90;;;;;;5049940;28;20407;-76
2022/09/19 08:43:14;;;;;;;4.13;1.50;;;10.90;99.90;;;;;;5049941;28;20848;-76
2022/09/19 08:46:22;;;;;;;15.10;2.10;;;10.80;99.90;;;;;;5050015;28;20455;-76
2022/09/19 08:48:58;;;;;;;15.03;2.10;;;10.80;99.90;;;;;;5043997;28;20439;-76
2022/09/19 08:51:34;;;;;;;3.67;1.33;;;10.90;99.90;;;;;;5049776;28;20946;-76
2022/09/19 08:54:06;;;;;;;8.50;1.23;;;10.70;99.90;;;;;;5049661;28;21324;-76
2022/09/19 08:56:35;;;;;;;17.93;2.60;;;10.80;99.90;;;;;;5049554;28;20558;-76
2022/09/19 08:59:03;;;;;;;8.90;1.50;;;10.90;99.90;;;;;;5048083;28;20429;-76
2022/09/19 09:01:38;;;;;;;12.50;1.67;;;11.00;99.90;;;;;;5047610;28;20424;-76
2022/09/19 09:04:14;;;;;;;6.07;1.77;;;11.10;99.90;;;;;;5049679;28;20419;-76
2022/09/19 09:06:52;;;;;;;7.83;1.50;;;11.20;99.90;;;;;;5050023;28;20421;-76
2022/09/19 09:10:03;;;;;;;5.83;1.83;;;11.20;99.90;;;;;;5049699;28;20420;-76
2022/09/19 09:13:04;;;;;;;8.97;2.03;;;11.20;99.90;;;;;;5049849;28;20441;-76
2022/09/19 09:16:16;;;;;;;5.60;1.97;;;11.20;99.90;;;;;;5050182;28;20477;-76
2022/09/19 09:18:57;;;;;;;14.13;2.60;;;11.20;99.90;;;;;;5050233;28;20425;-76
2022/09/19 09:21:35;;;;;;;8.57;1.70;;;11.20;99.90;;;;;;5049973;28;20415;-76
2022/09/19 09:24:13;;;;;;;11.80;1.57;;;11.30;99.90;;;;;;5049731;28;20568;-76
2022/09/19 09:26:43;;;;;;;7.40;1.60;;;11.50;99.90;;;;;;5048383;28;20846;-77
2022/09/19 09:29:30;;;;;;;7.00;1.47;;;11.60;99.90;;;;;;5048383;28;20429;-76
2022/09/19 09:32:00;;;;;;;8.40;1.90;;;11.80;99.90;;;;;;5049731;28;20911;-76
2022/09/19 09:34:33;;;;;;;13.37;2.03;;;11.90;99.90;;;;;;5049766;28;20414;-76
2022/09/19 09:37:21;;;;;;;10.60;1.83;;;12.00;99.90;;;;;;5049558;28;20885;-76
2022/09/19 09:40:12;;;;;;;9.23;1.90;;;12.10;99.90;;;;;;5049667;28;20499;-76
2022/09/19 09:43:07;;;;;;;7.57;1.80;;;12.20;99.90;;;;;;5047966;28;20441;-76
2022/09/19 09:45:41;;;;;;;7.00;1.87;;;12.10;99.90;;;;;;5048381;28;20418;-76
2022/09/19 09:48:29;;;;;;;8.70;1.90;;;12.10;99.90;;;;;;5049323;28;20443;-76
2022/09/19 09:51:23;;;;;;;6.73;1.87;;;12.20;99.90;;;;;;5049285;28;20509;-76
2022/09/19 09:53:57;;;;;;;5.63;1.77;;;12.20;99.90;;;;;;5049361;28;20431;-76
2022/09/19 09:56:44;;;;;;;6.30;1.63;;;12.20;99.90;;;;;;5049726;28;20991;-76
2022/09/19 10:06:15;;;;;;;12.33;1.63;;;12.70;99.90;;;;;;5049347;28;20414;-76
2022/09/19 10:08:46;;;;;;;10.97;1.70;;;12.90;99.90;;;;;;5008355;28;20513;-76
2022/09/19 10:11:22;;;;;;;14.80;1.90;;;13.00;99.90;;;;;;5047382;28;20422;-76
2022/09/19 10:14:01;;;;;;;7.33;2.13;;;13.20;99.90;;;;;;5051437;28;20429;-76
2022/09/19 10:16:32;;;;;;;5.07;1.80;;;13.20;99.90;;;;;;5052576;28;20453;-76
2022/09/19 10:19:14;;;;;;;8.27;3.10;;;13.20;99.90;;;;;;5051108;28;21004;-76
2022/09/19 10:21:40;;;;;;;7.87;2.63;;;13.10;99.90;;;;;;5052439;28;20954;-76
2022/09/19 10:24:40;;;;;;;9.80;2.90;;;13.10;99.90;;;;;;5052730;28;20422;-76
2022/09/19 10:27:33;;;;;;;8.40;1.83;;;13.10;99.90;;;;;;5052664;28;20507;-76
2022/09/19 10:30:14;;;;;;;8.17;1.97;;;12.90;99.90;;;;;;5052273;28;20915;-76
2022/09/19 10:32:40;;;;;;;6.77;1.30;;;12.80;99.90;;;;;;5052344;28;20822;-76
2022/09/19 10:35:26;;;;;;;7.17;2.50;;;12.70;99.90;;;;;;5050996;28;20417;-76
2022/09/19 10:38:01;;;;;;;8.07;1.70;;;12.90;99.90;;;;;;5052274;28;20642;-76
2022/09/19 10:40:29;;;;;;;15.10;2.40;;;13.10;99.90;;;;;;5052300;28;20413;-76
2022/09/19 10:42:55;;;;;;;6.80;1.57;;;13.20;99.90;;;;;;5052268;28;20438;-76
2022/09/19 10:45:27;;;;;;;10.77;1.60;;;13.30;99.90;;;;;;5052069;28;20981;-76
2022/09/19 10:48:10;;;;;;;7.63;1.60;;;13.30;99.90;;;;;;5052138;28;20423;-76
2022/09/19 10:50:46;;;;;;;4.53;1.20;;;13.40;99.90;;;;;;5052333;28;20406;-76
2022/09/19 10:53:27;;;;;;;8.93;2.40;;;13.40;99.90;;;;;;5051903;28;20517;-76
2022/09/19 10:55:55;;;;;;;5.53;1.60;;;13.30;99.90;;;;;;5051983;28;20452;-75
2022/09/19 10:58:28;;;;;;;11.90;2.67;;;13.30;99.90;;;;;;5051737;28;20458;-75
2022/09/19 11:01:05;;;;;;;5.97;1.23;;;13.30;99.90;;;;;;5050424;28;20426;-75
2022/09/19 11:03:39;;;;;;;6.80;1.60;;;13.20;99.90;;;;;;5052136;28;20433;-74
2022/09/19 11:06:13;;;;;;;6.43;1.87;;;13.20;99.90;;;;;;5051905;28;20907;-75
2022/09/19 11:08:50;;;;;;;11.20;4.30;;;13.20;99.90;;;;;;5051672;28;20417;-75
2022/09/19 11:11:38;;;;;;;6.20;1.70;;;13.10;99.90;;;;;;5051560;28;20792;-76
2022/09/19 11:14:31;;;;;;;10.30;4.47;;;13.10;99.90;;;;;;5051584;28;20469;-76
2022/09/19 11:17:18;;;;;;;4.53;3.33;;;13.00;99.90;;;;;;5051675;28;20849;-76
2022/09/19 11:20:16;;;;;;;27.80;13.77;;;13.00;99.90;;;;;;5051589;28;20409;-77
2022/09/19 11:23:13;;;;;;;5.53;2.40;;;13.10;99.90;;;;;;5050253;28;20449;-76
2022/09/19 11:25:52;;;;;;;6.40;2.30;;;13.20;99.90;;;;;;5051053;28;20457;-76
2022/09/19 11:28:37;;;;;;;12.77;5.03;;;13.20;99.90;;;;;;5049868;28;20805;-77
2022/09/19 11:31:44;;;;;;;6.83;4.10;;;13.30;99.90;;;;;;5051416;28;20458;-76
2022/09/19 11:34:48;;;;;;;8.07;5.57;;;13.40;99.90;;;;;;5049751;28;20830;-76
2022/09/19 11:37:32;;;;;;;5.50;1.53;;;13.20;99.90;;;;;;5051081;28;20457;-76
2022/09/19 11:40:20;;;;;;;6.70;1.50;;;13.30;99.90;;;;;;5052714;28;20891;-76
2022/09/19 11:43:22;;;;;;;3.97;1.00;;;13.30;99.90;;;;;;5053188;28;20433;-75
2022/09/19 11:46:19;;;;;;;4.67;1.10;;;13.30;99.90;;;;;;5052729;28;20489;-76
2022/09/19 11:48:45;;;;;;;2.63;1.00;;;13.40;99.90;;;;;;5052170;28;20529;-76
2022/09/19 11:51:54;;;;;;;4.17;2.00;;;13.50;99.90;;;;;;5051438;28;20521;-76
2022/09/19 11:54:31;;;;;;;7.40;1.20;;;13.50;99.90;;;;;;5028836;28;20549;-76
2022/09/19 11:57:04;;;;;;;8.47;1.10;;;13.50;99.90;;;;;;5051798;28;20465;-76
2022/09/19 11:59:49;;;;;;;2.40;1.20;;;13.50;99.90;;;;;;5050252;28;20427;-76
2022/09/19 12:02:36;;;;;;;3.40;0.90;;;13.50;99.90;;;;;;5051089;28;20445;-76
2022/09/19 12:05:25;;;;;;;2.40;1.10;;;13.50;99.90;;;;;;5050856;28;20445;-76
2022/09/19 12:08:13;;;;;;;4.97;1.47;;;13.40;99.90;;;;;;5050902;28;20444;-76
2022/09/19 12:10:44;;;;;;;4.53;1.20;;;13.40;99.90;;;;;;5049094;28;20430;-76
2022/09/19 12:13:25;;;;;;;6.33;1.10;;;13.50;99.90;;;;;;5050781;28;20531;-76
2022/09/19 12:16:03;;;;;;;6.20;0.90;;;13.40;99.90;;;;;;5050879;28;20836;-76
2022/09/19 12:18:45;;;;;;;11.67;1.50;;;13.50;99.90;;;;;;5050761;28;20462;-76
2022/09/19 12:21:15;;;;;;;6.03;2.00;;;13.60;99.90;;;;;;5050875;28;20431;-77
2022/09/19 12:27:07;;;;;;;4.57;1.43;;;13.80;99.90;;;;;;5050913;28;20431;-76
2022/09/19 12:29:58;;;;;;;2.50;1.00;;;13.80;99.90;;;;;;5049825;28;20435;-76
2022/09/19 12:32:56;;;;;;;2.17;0.80;;;13.80;99.90;;;;;;5050438;28;20441;-76
2022/09/19 12:35:43;;;;;;;7.40;1.23;;;13.70;99.90;;;;;;5050174;28;20451;-76
2022/09/19 12:38:17;;;;;;;3.47;1.07;;;13.90;99.90;;;;;;5049585;28;20473;-76
2022/09/19 12:40:58;;;;;;;8.73;1.20;;;13.90;99.90;;;;;;5050152;28;20497;-76
2022/09/19 12:43:32;;;;;;;5.10;1.33;;;14.10;99.90;;;;;;5049826;28;20464;-76
2022/09/19 12:46:16;;;;;;;2.60;0.73;;;14.20;99.90;;;;;;5050084;28;20410;-76
2022/09/19 12:49:03;;;;;;;3.23;1.10;;;14.20;99.90;;;;;;5048227;28;20934;-77
2022/09/19 12:51:51;;;;;;;5.77;1.47;;;14.30;99.90;;;;;;5049689;28;20452;-76
2022/09/19 12:54:43;;;;;;;2.83;1.00;;;14.40;99.90;;;;;;5049877;28;20464;-76
2022/09/19 12:57:36;;;;;;;4.10;1.20;;;14.30;99.90;;;;;;5043819;28;20478;-76
2022/09/19 13:00:03;;;;;;;1.80;1.00;;;14.30;99.90;;;;;;5049817;28;20490;-76
2022/09/19 13:02:34;;;;;;;10.20;1.27;;;14.30;99.90;;;;;;5049455;28;20507;-76
2022/09/19 13:05:13;;;;;;;2.87;1.20;;;14.50;99.90;;;;;;5049867;28;20967;-76
2022/09/19 13:07:45;;;;;;;5.37;1.20;;;14.40;99.90;;;;;;5049518;28;20398;-76
2022/09/19 13:10:26;;;;;;;3.13;0.80;;;14.30;99.90;;;;;;5049611;28;20464;-76
2022/09/19 13:12:57;;;;;;;4.60;1.07;;;14.20;99.90;;;;;;5047973;28;21048;-76
2022/09/19 13:15:42;;;;;;;4.10;0.93;;;13.90;99.90;;;;;;5049354;28;20775;-75
2022/09/19 13:23:45;;;;;;;3.97;0.90;;;13.40;99.90;;;;;;5049415;28;20508;-76
2022/09/19 13:26:17;;;;;;;2.90;1.10;;;13.50;99.90;;;;;;5049236;28;20429;-75
2022/09/19 13:28:51;;;;;;;1.93;0.50;;;13.50;99.90;;;;;;5049128;28;20492;-75
2022/09/19 13:31:18;;;;;;;4.00;1.00;;;13.60;99.90;;;;;;5049258;28;20960;-74
2022/09/19 13:33:52;;;;;;;3.37;0.90;;;13.50;99.90;;;;;;5047838;28;20464;-75
2022/09/19 13:36:23;;;;;;;5.93;0.70;;;13.60;99.90;;;;;;5049259;28;20930;-75
2022/09/19 13:38:53;;;;;;;2.53;0.80;;;13.80;99.90;;;;;;5047801;28;20445;-76
2022/09/19 13:41:41;;;;;;;4.90;1.20;;;14.10;99.90;;;;;;5049375;28;20887;-75
2022/09/19 13:44:39;;;;;;;3.87;1.10;;;14.20;99.90;;;;;;5049182;28;20912;-76
2022/09/19 13:47:26;;;;;;;4.50;0.73;;;14.40;99.90;;;;;;5049077;28;20403;-76
2022/09/19 13:50:03;;;;;;;4.10;1.00;;;14.40;99.90;;;;;;5049576;28;20880;-76